Race 1 – Charlton on Otmoor

Full searchable results can be found online at Tempo Events. They are reproduced below.

Chip timing for these races is provided by Tempo Events, with a manual backup and video recording of the finish. The results buttons above will take you direct to the results on their website. Please address any queries about the results direct to Tempo Events (and preferably within 48 hours of the race) by contacting Sarah Bland at sarah@tempoevents.co.uk, but please also copy your e-mail to results@kidlingtonrunning.org.uk.

Results

Congratulations to Alex Walker and Liz Barker the two winners of this year’s first Mota-vation race!

The full official results are as follows:

Pos Race No Fav Name Time Category Cat Pos Gender Gen Pos Club TOD Finish
1 191 Alex WALKER 00:21:26 SM 1 Male 1 Vale of Aylesbury 19:22:39 00:21:26
2 106 Dan BLAKE 00:21:40 SM 2 Male 2 Oxford City AC 19:22:53 00:21:40
3 359 Les NEWELL 00:21:52 VM40 1 Male 3 Oxford City AC 19:23:05 00:21:52
4 195 Brad WILLIAMS 00:21:54 SM 3 Male 4 Bicester Tri 19:23:07 00:21:54
5 321 James EVE 00:21:57 VM40 2 Male 5 Headington Roadrunners 19:23:10 00:21:57
6 182 Owen STEPNEY 00:22:06 SM 4 Male 6 Abingdon AC 19:23:19 00:22:06
7 570 Julian RICHARDSON 00:22:09 VM50 1 Male 7 Oxford City AC 19:23:22 00:22:09
8 489 Ben WEST 00:22:11 U19M 1 Male 8 Bicester AC 19:23:24 00:22:11
9 306 James BOLTON 00:22:15 VM40 3 Male 9 WOODSTOCK HARRIERS 19:23:28 00:22:15
10 484 Gregor KELLING 00:22:22 U19M 2 Male 10 Banbury 19:23:35 00:22:22
11 390 Rob TAYLOR 00:22:27 VM40 4 Male 11 Vale of Aylesbury 19:23:40 00:22:27
12 148 Stephen KIMBER 00:22:34 SM 5 Male 12 WSEH 19:23:47 00:22:34
13 335 Gary HARRIS 00:22:38 VM40 5 Male 13 Headington Roadrunners 19:23:51 00:22:38
14 388 Martyn SUMMERFIELD 00:22:41 VM40 6 Male 14 Vale of Aylesbury 19:23:54 00:22:41
15 102 Mark BAKER 00:22:44 SM 6 Male 15 Eynsham Roadrunners 19:23:57 00:22:44
16 175 Henry SLEIGHT 00:22:50 SM 7 Male 16 Cherwell Runners & Joggers 19:24:03 00:22:50
17 198 Daniel WILSON 00:22:52 SM 8 Male 17 Abingdon AC 19:24:05 00:22:52
18 501 John AYTEO 00:22:53 VM50 2 Male 18 Oxford City AC 19:24:06 00:22:53
19 189 Mark TYRRELL 00:22:55 SM 9 Male 19 Oxford City AC 19:24:08 00:22:55
20 100 Richard ASHBY 00:23:14 SM 10 Male 20 Headington Roadrunners 19:24:27 00:23:14
21 155 Paul LEVERTON 00:23:18 SM 11 Male 21 Bicester Tri 19:24:31 00:23:18
22 167 Mike PEARCE 00:23:21 SM 12 Male 22 Headington Roadrunners 19:24:34 00:23:21
23 375 Chris RILEY 00:23:22 VM40 7 Male 23 Bedford & County AC 19:24:35 00:23:22
24 385 Andrew STICKLEY 00:23:25 VM40 8 Male 24 Alchester RC 19:24:38 00:23:25
25 163 Jack MILLER 00:23:26 SM 13 Male 25 Abingdon AC 19:24:39 00:23:26
26 190 Samuel UPTON 00:23:28 SM 14 Male 26 Witney Roadrunners 19:24:41 00:23:28
27 623 Paul GREGORY 00:23:39 VM60 1 Male 27 Vale of Aylesbury 19:24:52 00:23:39
28 312 Jason COOKE 00:23:42 VM40 9 Male 28 White Horse Harriers 19:24:55 00:23:42
29 510 David CANTWELL 00:23:43 VM50 3 Male 29 WOODSTOCK HARRIERS 19:24:56 00:23:43
30 330 Richard GOULD 00:23:45 VM40 10 Male 30 Alchester RC 19:24:58 00:23:45
31 154 Peter LEEK 00:23:46 SM 15 Male 31 Headington Roadrunners 19:24:59 00:23:46
32 369 Chris PRINCE 00:23:48 VM40 11 Male 32 Headington Roadrunners 19:25:01 00:23:48
33 315 Jon DARWENT 00:23:50 VM40 12 Male 33 Abingdon AC 19:25:03 00:23:50
34 199 James WRIGHT 00:23:52 SM 16 Male 34 Alchester RC 19:25:05 00:23:52
35 121 Lewis FAULKNER 00:23:54 SM 17 Male 35 Headington Roadrunners 19:25:07 00:23:54
36 118 James DAVIS 00:23:55 SM 18 Male 36 Vale of Aylesbury 19:25:08 00:23:55
37 141 Colin HORNBY 00:23:58 SM 19 Male 37 Alchester RC 19:25:11 00:23:58
38 311 Thomas CONEY 00:23:58 VM40 13 Male 38 Abingdon AC 19:25:11 00:23:58
39 578 Robert STOREY 00:23:59 VM50 4 Male 39 Eynsham Roadrunners 19:25:12 00:23:59
40 398 Dafydd WARBURTON 00:24:05 VM40 14 Male 40 Eynsham Roadrunners 19:25:18 00:24:05
41 186 Jeffrey TRYBUS 00:24:06 SM 20 Male 41 Cherwell Runners & Joggers 19:25:19 00:24:06
42 185 Matthew THATCHER 00:24:11 SM 21 Male 42 Alchester RC 19:25:24 00:24:11
43 382 Richard SKILBECK 00:24:12 VM40 15 Male 43 Headington Roadrunners 19:25:25 00:24:12
44 333 Anthony HANNER HOPWOOD 00:24:15 VM40 16 Male 44 Headington Roadrunners 19:25:28 00:24:15
45 187 Carl TUCKER 00:24:17 SM 22 Male 45 Marshall Milton Keynes AC 19:25:30 00:24:17
46 480 Eric CUGNET 00:24:21 U19M 3 Male 46 Witney Roadrunners 19:25:34 00:24:21
47 325 Kevin FRENCH 00:24:22 VM40 17 Male 47 Alchester RC 19:25:35 00:24:22
48 133 Andy GODWIN 00:24:24 SM 23 Male 48 White Horse Harriers 19:25:37 00:24:24
49 486 Matthew LOCK 00:24:31 U19M 4 Male 49 Witney Roadrunners 19:25:44 00:24:31
50 302 David BANNISTER 00:24:39 VM40 18 Male 50 Hook Norton Harriers 19:25:52 00:24:39
51 331 Neil GRIEG 00:24:44 VM40 19 Male 51 Alchester RC 19:25:57 00:24:44
52 485 Owen KNOX 00:24:44 U19M 5 Male 52 Banbury 19:25:57 00:24:44
53 136 Peter GREEN 00:24:45 SM 24 Male 53 Eynsham Roadrunners 19:25:58 00:24:45
54 548 Anthony LOCK 00:24:45 VM50 5 Male 54 Witney Roadrunners 19:25:58 00:24:45
55 120 Adam FAIRHURST-GROETHE 00:24:49 SM 25 Male 55 Cherwell Runners & Joggers 19:26:02 00:24:49
56 308 Andy BYERLEY 00:24:49 VM40 20 Male 56 Vale of Aylesbury 19:26:02 00:24:49
57 349 Mark LANE 00:24:50 VM40 21 Male 57 White Horse Harriers 19:26:03 00:24:50
58 803 Liz BARKER 00:24:52 VL35 1 Female 1 Headington Roadrunners 19:26:05 00:24:52
59 518 Graham FERRIS 00:24:54 VM50 6 Male 58 Witney Roadrunners 19:26:07 00:24:54
60 362 Shaun O'GORMAN 00:24:56 VM40 22 Male 59 Alchester RC 19:26:09 00:24:56
61 542 Ian LAMBOURN 00:25:00 VM50 7 Male 60 White Horse Harriers 19:26:13 00:25:00
62 300 Peter AKRILL 00:25:04 VM40 23 Male 61 Abingdon AC 19:26:17 00:25:04
63 197 Kristian WILLIAMS 00:25:08 SM 26 Male 62 Bicester Tri 19:26:21 00:25:08
64 114 Seth CAYLEY 00:25:09 SM 27 Male 63 Headington Roadrunners 19:26:22 00:25:09
65 368 Hans PRICE 00:25:13 VM40 24 Male 64 WOODSTOCK HARRIERS 19:26:26 00:25:13
66 701 Donna ALLEN 00:25:15 SL 1 Female 2 Hook Norton Harriers 19:26:28 00:25:15
67 482 Ed GRONBECH 00:25:15 U19M 6 Male 65 Radley AC 19:26:28 00:25:15
68 488 Samuel STEMBRIDGE-KING 00:25:16 U19M 7 Male 66 Vale of Aylesbury 19:26:29 00:25:16
69 131 Lee GODBER 00:25:17 SM 28 Male 67 Bicester Tri 19:26:30 00:25:17
70 391 Dewi THOMAS 00:25:19 VM40 25 Male 68 Cherwell Runners & Joggers 19:26:32 00:25:19
71 327 Kevin GAME 00:25:19 VM40 26 Male 69 WOODSTOCK HARRIERS 19:26:32 00:25:19
72 807 Sophie CARTER 00:25:20 VL35 2 Female 3 Belgrave Harriers 19:26:33 00:25:20
73 340 Fraser HOWARD 00:25:21 VM40 27 Male 70 Witney Roadrunners 19:26:34 00:25:21
74 126 Thomas FOOTTIT 00:25:22 SM 29 Male 71 Hook Norton Harriers 19:26:35 00:25:22
75 370 Simon PRITCHARD 00:25:24 VM40 28 Male 72 Banbury 19:26:37 00:25:24
76 525 Phil GRAY 00:25:24 VM50 8 Male 73 Oxford City AC 19:26:37 00:25:24
77 339 Marcus HILL 00:25:26 VM40 29 Male 74 Headington Roadrunners 19:26:39 00:25:26
78 621 Richard GRANT 00:25:26 VM60 2 Male 75 Oxford City AC 19:26:39 00:25:26
79 156 Max LIVINGSTONE-LEARMONTH 00:25:28 SM 30 Male 76 Abingdon AC 19:26:41 00:25:28
80 860 Sarah RENDELL 00:25:31 VL35 3 Female 4 Alchester RC 19:26:44 00:25:31
81 504 Graham BRIDGES 00:25:33 VM50 9 Male 77 Eynsham Roadrunners 19:26:46 00:25:33
82 171 Daniel RINGS 00:25:35 SM 31 Male 78 Headington Roadrunners 19:26:48 00:25:35
83 142 Liam HOSIER 00:25:40 SM 32 Male 79 Kidlington Running Club 19:26:53 00:25:40
84 179 David SMYTH 00:25:46 SM 33 Male 80 Abingdon AC 19:26:59 00:25:46
85 145 Garry JAMES 00:25:51 SM 34 Male 81 Bicester Tri 19:27:04 00:25:51
86 161 Alexander MCKEND 00:25:52 SM 35 Male 82 Abingdon AC 19:27:05 00:25:52
87 535 Steve HOLDER 00:25:54 VM50 10 Male 83 Abingdon AC 19:27:07 00:25:54
88 366 Benedict POLLARD 00:25:55 VM40 30 Male 84 Eynsham Roadrunners 19:27:08 00:25:55
89 822 Sarah DUDGEON 00:25:56 VL35 4 Female 5 Abingdon AC 19:27:09 00:25:56
90 101 Jamie BAGNALL 00:26:04 SM 36 Male 85 Alchester RC 19:27:17 00:26:04
91 378 Mark SCHOFIELD 00:26:06 VM40 31 Male 86 Eynsham Roadrunners 19:27:19 00:26:06
92 583 Graham WALLACE 00:26:07 VM50 11 Male 87 Abingdon AC 19:27:20 00:26:07
93 361 Darren NICHOL 00:26:08 VM40 32 Male 88 Cherwell Runners & Joggers 19:27:21 00:26:08
94 553 Nick MOGLIA 00:26:08 VM50 12 Male 89 Witney Roadrunners 19:27:21 00:26:08
95 193 Arthur WALTON 00:26:17 SM 37 Male 90 Headington Roadrunners 19:27:30 00:26:17
96 373 Mark RICHARDS 00:26:21 VM40 33 Male 91 Vale of Aylesbury 19:27:34 00:26:21
97 139 Matt HILLS 00:26:22 SM 38 Male 92 Abingdon AC 19:27:35 00:26:22
98 328 Craig GIBBIN 00:26:23 VM40 34 Male 93 Witney Roadrunners 19:27:36 00:26:23
99 527 Robert GREEN 00:26:27 VM50 13 Male 94 Witney Roadrunners 19:27:40 00:26:27
100 149 Przemyslaw KWASNIEWSKI 00:26:27 SM 39 Male 95 Bicester Tri 19:27:40 00:26:27
101 820 Sarah DAVIES 00:26:29 VL35 5 Female 6 Oxford City AC 19:27:42 00:26:29
102 584 Howard WALLER 00:26:30 VM50 14 Male 96 Oxford City AC 19:27:43 00:26:30
103 119 William DOWNEY 00:26:31 SM 40 Male 97 Witney Roadrunners 19:27:44 00:26:31
104 397 Simon WALKER 00:26:32 VM40 35 Male 98 Eynsham Roadrunners 19:27:45 00:26:32
105 978 Samantha USHER 00:26:32 VL45 1 Female 7 Alchester RC 19:27:45 00:26:32
106 642 Stewart THORP 00:26:33 VM60 3 Male 99 Oxford City AC 19:27:46 00:26:33
107 303 Jon BARKER 00:26:33 VM40 36 Male 100 Headington Roadrunners 19:27:46 00:26:33
108 554 Brian MOORE 00:26:38 VM50 15 Male 101 Witney Roadrunners 19:27:51 00:26:38
109 316 Kent DIXON 00:26:41 VM40 37 Male 102 Abingdon AC 19:27:54 00:26:41
110 607 Jon BURGESS 00:26:42 VM60 4 Male 103 Alchester RC 19:27:55 00:26:42
111 384 Adam SPAUL 00:26:45 VM40 38 Male 104 WOODSTOCK HARRIERS 19:27:58 00:26:45
112 181 Peter STANTON 00:26:46 SM 41 Male 105 Cherwell Runners & Joggers 19:27:59 00:26:46
113 374 Martin RIDEWOOD 00:26:48 VM40 39 Male 106 WOODSTOCK HARRIERS 19:28:01 00:26:48
114 313 Darren COX 00:26:51 VM40 40 Male 107 Hook Norton Harriers 19:28:04 00:26:51
115 152 Adam LEARY 00:26:53 SM 42 Male 108 Witney Roadrunners 19:28:06 00:26:53
116 537 Mark JARRETT 00:26:55 VM50 16 Male 109 Witney Roadrunners 19:28:08 00:26:55
117 399 Gary WARLAND 00:26:55 VM40 41 Male 110 Alchester RC 19:28:08 00:26:55
118 404 Royston WILLIAMS 00:26:56 VM40 42 Male 111 Hook Norton Harriers 19:28:09 00:26:56
119 319 Dan EISENHANDLER 00:26:59 VM40 43 Male 112 WOODSTOCK HARRIERS 19:28:12 00:26:59
120 394 Kurt TRINDER 00:27:00 VM40 44 Male 113 Cherwell Runners & Joggers 19:28:13 00:27:00
121 517 Henry EDWARDES-EVANS 00:27:00 VM50 17 Male 114 Vale of Aylesbury 19:28:13 00:27:00
122 647 Bryan Green 00:27:03 VM60 5 Male 115 Oxford City AC 19:28:16 00:27:03
123 520 Martin FOSTER 00:27:09 VM50 18 Male 116 Hook Norton Harriers 19:28:22 00:27:09
124 351 Andrew MACDONALD 00:27:14 VM40 45 Male 117 Cherwell Runners & Joggers 19:28:27 00:27:14
125 352 Dave MAY 00:27:15 VM40 46 Male 118 Witney Roadrunners 19:28:28 00:27:15
126 304 Tim BETTS 00:27:16 VM40 47 Male 119 Headington Roadrunners 19:28:29 00:27:16
127 334 Nick HARDWICK 00:27:17 VM40 48 Male 120 Eynsham Roadrunners 19:28:30 00:27:17
128 643 Roy TREADWELL 00:27:18 VM60 6 Male 121 Oxford City AC 19:28:31 00:27:18
129 365 Andrew PIKE 00:27:19 VM40 49 Male 122 WOODSTOCK HARRIERS 19:28:32 00:27:19
130 150 Ben LAING 00:27:20 SM 43 Male 123 Alchester RC 19:28:33 00:27:20
131 523 Phil GILKES 00:27:20 VM50 19 Male 124 Cherwell Runners & Joggers 19:28:33 00:27:20
132 547 Andrew LISTER 00:27:21 VM50 20 Male 125 19:28:34 00:27:21
133 386 Peter STRATFORD 00:27:22 VM40 50 Male 126 Cherwell Runners & Joggers 19:28:35 00:27:22
134 551 Peter MARSHALL 00:27:23 VM50 21 Male 127 Oxford City AC 19:28:36 00:27:23
135 127 Oliver FOSTER 00:27:25 SM 44 Male 128 Alchester RC 19:28:38 00:27:25
136 188 Chris TURNBULL 00:27:26 SM 45 Male 129 Headington Roadrunners 19:28:39 00:27:26
137 105 Vincente BAYLISS 00:27:31 SM 46 Male 130 Alchester RC 19:28:44 00:27:31
138 103 Tom BAKER 00:27:32 SM 47 Male 131 Eynsham Roadrunners 19:28:45 00:27:32
139 324 Adrian FRANCIS 00:27:35 VM40 51 Male 132 Abingdon AC 19:28:48 00:27:35
140 604 Malcolm BROWN 00:27:36 VM60 7 Male 133 Hook Norton Harriers 19:28:49 00:27:36
141 505 Leo BROOKE-LITTLE 00:27:38 VM50 22 Male 134 WOODSTOCK HARRIERS 19:28:51 00:27:38
142 104 Martyn BANHAM 00:27:38 SM 48 Male 135 Hook Norton Harriers 19:28:51 00:27:38
143 337 Warren HARRISON 00:27:39 VM40 52 Male 136 Cherwell Runners & Joggers 19:28:52 00:27:39
144 402 Garry WILLIAMS 00:27:39 VM40 53 Male 137 19:28:52 00:27:39
145 739 Carly PETTETT 00:27:40 SL 2 Female 8 Eynsham Roadrunners 19:28:53 00:27:40
146 130 Jonathan GIBBARD 00:27:41 SM 49 Male 138 White Horse Harriers 19:28:54 00:27:41
147 723 Amy JOHNSON 00:27:43 SL 3 Female 9 Headington Roadrunners 19:28:56 00:27:43
148 540 Robert KERR 00:27:45 VM50 23 Male 139 Alchester RC 19:28:58 00:27:45
149 137 Tristan HALE 00:27:50 SM 50 Male 140 Eynsham Roadrunners 19:29:03 00:27:50
150 511 Andy CHURCH 00:27:52 VM50 24 Male 141 Witney Roadrunners 19:29:05 00:27:52
151 867 Lindsey SMITH 00:27:54 VL35 6 Female 10 Witney Roadrunners 19:29:07 00:27:54
152 512 John CLARGO 00:27:55 VM50 25 Male 142 Headington Roadrunners 19:29:08 00:27:55
153 712 Becky FENNELL 00:27:56 SL 4 Female 11 Alchester RC 19:29:09 00:27:56
154 858 Michelle REID 00:27:58 VL35 7 Female 12 Headington Roadrunners 19:29:11 00:27:58
155 950 Sarah KERSWELL 00:28:02 VL45 2 Female 13 WOODSTOCK HARRIERS 19:29:15 00:28:02
156 153 Lennard LEE 00:28:03 SM 51 Male 143 Headington Roadrunners 19:29:16 00:28:03
157 900 Kate ALLRED 00:28:09 VL45 3 Female 14 Headington Roadrunners 19:29:22 00:28:09
158 818 Kate DANIELS 00:28:15 VL35 8 Female 15 Headington Roadrunners 19:29:28 00:28:15
159 389 Inigo SURGUY 00:28:15 VM40 54 Male 144 Headington Roadrunners 19:29:28 00:28:15
160 146 Sonnie JANE 00:28:16 SM 52 Male 145 WOODSTOCK HARRIERS 19:29:29 00:28:16
161 310 Tom CLARKE 00:28:18 VM40 55 Male 146 Abingdon AC 19:29:31 00:28:18
162 589 Ian WHITEHEAD 00:28:19 VM50 26 Male 147 Cherwell Runners & Joggers 19:29:32 00:28:19
163 135 Angus GRANT 00:28:19 SM 53 Male 148 Headington Roadrunners 19:29:32 00:28:19
164 706 Harriet BOWYER 00:28:23 SL 5 Female 16 Oxford Tri 19:29:36 00:28:23
165 514 Steve COWLS 00:28:23 VM50 27 Male 149 Headington Roadrunners 19:29:36 00:28:23
166 943 Julia JAMES 00:28:24 VL45 4 Female 17 Abingdon AC 19:29:37 00:28:24
167 539 Mark JONES 00:28:25 VM50 28 Male 150 Headington Roadrunners 19:29:38 00:28:25
168 616 John EXLEY 00:28:27 VM60 8 Male 151 Oxford City AC 19:29:40 00:28:27
169 396 Steve WADE 00:28:28 VM40 56 Male 152 Abingdon AC 19:29:41 00:28:28
170 558 Neil MUIR 00:28:28 VM50 29 Male 153 Vale of Aylesbury 19:29:41 00:28:28
171 948 Ros KELLING 00:28:29 VL45 5 Female 18 Banbury 19:29:42 00:28:29
172 587 Ken WELBY 00:28:32 VM50 30 Male 154 Abingdon AC 19:29:45 00:28:32
173 574 Stephen SMITH 00:28:32 VM50 31 Male 155 Abingdon AC 19:29:45 00:28:32
174 568 Martin READER 00:28:34 VM50 32 Male 156 Bicester Tri 19:29:47 00:28:34
175 353 Nick MORLEY 00:28:35 VM40 57 Male 157 Witney Roadrunners 19:29:48 00:28:35
176 737 Zuzana PEARCE 00:28:38 SL 6 Female 19 Headington Roadrunners 19:29:51 00:28:38
177 144 Andrew HURST 00:28:42 SM 54 Male 158 Alchester RC 19:29:55 00:28:42
178 714 Bridget GOULD 00:28:47 SL 7 Female 20 WOODSTOCK HARRIERS 19:30:00 00:28:47
179 314 Stuart CROOK 00:28:49 VM40 58 Male 159 Headington Roadrunners 19:30:02 00:28:49
180 180 Tom STANDARD 00:28:54 SM 55 Male 160 Witney Roadrunners 19:30:07 00:28:54
181 611 Philip COY 00:28:57 VM60 9 Male 161 Banbury 19:30:10 00:28:57
182 704 Lizzie BATEMAN 00:28:58 SL 8 Female 21 Alchester RC 19:30:11 00:28:58
183 406 Simon WORFOLK 00:29:01 VM40 59 Male 162 Alchester RC 19:30:14 00:29:01
184 320 Rob EVANS 00:29:04 VM40 60 Male 163 Alchester RC 19:30:17 00:29:04
185 151 Ian LANCASTER 00:29:04 SM 56 Male 164 Alchester RC 19:30:17 00:29:04
186 645 Tony WHITLOCK 00:29:06 VM60 10 Male 165 Eynsham Roadrunners 19:30:19 00:29:06
187 172 Craig ROGERS 00:29:08 SM 57 Male 166 Bicester Tri 19:30:21 00:29:08
188 749 Lucy SHELTON 00:29:11 SL 9 Female 22 Abingdon AC 19:30:24 00:29:11
189 853 Yvonne MORRIS 00:29:13 VL35 9 Female 23 Headington Roadrunners 19:30:26 00:29:13
190 176 Andrew SMITH 00:29:15 SM 58 Male 167 Headington Roadrunners 19:30:28 00:29:15
191 614 Mike DAVIES 00:29:17 VM60 11 Male 168 Headington Roadrunners 19:30:30 00:29:17
192 869 Rachel STANLEY-EVANS 00:29:23 VL35 10 Female 24 Witney Roadrunners 19:30:36 00:29:23
193 309 Toby CLARKE 00:29:23 VM40 61 Male 169 Witney Roadrunners 19:30:36 00:29:23
194 371 Richard REDFORD 00:29:28 VM40 62 Male 170 Witney Roadrunners 19:30:41 00:29:28
195 526 Darren GRAYSON 00:29:29 VM50 33 Male 171 Witney Roadrunners 19:30:42 00:29:29
196 355 Andrew MUIR 00:29:30 VM40 63 Male 172 Abingdon AC 19:30:43 00:29:30
197 857 Ana RAMOS-VILLAVERDE 00:29:31 VL35 11 Female 25 Radley AC 19:30:44 00:29:31
198 507 Tony BURKETT 00:29:32 VM50 34 Male 173 Witney Roadrunners 19:30:45 00:29:32
199 502 Martin BATE 00:29:35 VM50 35 Male 174 19:30:48 00:29:35
200 929 Jo GUNDLE 00:29:36 VL45 6 Female 26 Bicester Tri 19:30:49 00:29:36
201 600 Neville BAKER 00:29:41 VM60 12 Male 175 Headington Roadrunners 19:30:54 00:29:41
202 576 John STEMBRIDGE-KING 00:29:46 VM50 36 Male 176 Vale of Aylesbury 19:30:59 00:29:46
203 174 Ian SELBY 00:29:47 SM 59 Male 177 Cherwell Runners & Joggers 19:31:00 00:29:47
204 393 Julian TRANTER 00:29:49 VM40 64 Male 178 Headington Roadrunners 19:31:02 00:29:49
205 725 Anna MACKIN 00:29:52 SL 10 Female 27 Eynsham Roadrunners 19:31:05 00:29:52
206 864 Catriona SCOTT 00:29:53 VL35 12 Female 28 Headington Roadrunners 19:31:06 00:29:53
207 356 Shaun MULLINS 00:29:55 VM40 65 Male 179 Cherwell Runners & Joggers 19:31:08 00:29:55
208 487 Jacob SHEEL 00:30:05 U19M 8 Male 180 Marlborough School 19:31:18 00:30:05
209 613 Mark CREASEY 00:30:08 VM60 13 Male 181 Eynsham Roadrunners 19:31:21 00:30:08
210 622 Thornton GREENLAND 00:30:10 VM60 14 Male 182 Abingdon AC 19:31:23 00:30:10
211 914 Sue CANTWELL 00:30:11 VL45 7 Female 29 WOODSTOCK HARRIERS 19:31:24 00:30:11
212 863 Sarah SCAIFE 00:30:12 VL35 13 Female 30 Kidlington Running Club 19:31:25 00:30:12
213 580 Paul TAYLOR 00:30:13 VM50 37 Male 183 Hook Norton Harriers 19:31:26 00:30:13
214 348 Paul LAMBERT 00:30:14 VM40 66 Male 184 Hook Norton Harriers 19:31:27 00:30:14
215 367 Tony POUND 00:30:16 VM40 67 Male 185 Headington Roadrunners 19:31:29 00:30:16
216 585 Neil WALLIS 00:30:19 VM50 38 Male 186 Banbury 19:31:32 00:30:19
217 565 Andy PHELPS 00:30:26 VM50 39 Male 187 Headington Roadrunners 19:31:39 00:30:26
218 562 David OSBORNE 00:30:30 VM50 40 Male 188 Cherwell Runners & Joggers 19:31:43 00:30:30
219 609 Kevin BYRNE 00:30:31 VM60 15 Male 189 Headington Roadrunners 19:31:44 00:30:31
220 905 Rachel BENNETT 00:30:33 VL45 8 Female 31 White Horse Harriers 19:31:46 00:30:33
221 508 Steve BUTLER 00:30:34 VM50 41 Male 190 Eynsham Roadrunners 19:31:47 00:30:34
222 159 Thomas MARSHALL 00:30:37 SM 60 Male 191 Bicester Tri 19:31:50 00:30:37
223 381 Christopher SHARPE 00:30:38 VM40 68 Male 192 Abingdon AC 19:31:51 00:30:38
224 735 Georgina NEWELL 00:30:41 SL 11 Female 32 Alchester RC 19:31:54 00:30:41
225 46 Jacqueline PINNOCK 00:30:41 VL55 1 Female 33 Eynsham Roadrunners 19:31:54 00:30:41
226 338 Adrian HIGGINS 00:30:45 VM40 69 Male 193 Headington Roadrunners 19:31:58 00:30:45
227 509 Justin BYWORTH 00:30:46 VM50 42 Male 194 Eynsham Roadrunners 19:31:59 00:30:46
228 196 Christopher WILLIAMS 00:30:46 SM 61 Male 195 Eynsham Roadrunners 19:31:59 00:30:46
229 347 Will KNOX 00:30:48 VM40 70 Male 196 Banbury 19:32:01 00:30:48
230 317 Aldred DURHAM 00:30:50 VM40 71 Male 197 Abingdon AC 19:32:03 00:30:50
231 852 Jenny MOORE 00:30:53 VL35 14 Female 34 Witney Roadrunners 19:32:06 00:30:53
232 927 Jacqui GAMAGE 00:30:59 VL45 9 Female 35 Witney Roadrunners 19:32:12 00:30:59
233 534 Simon HODKIN 00:31:00 VM50 43 Male 198 Headington Roadrunners 19:32:13 00:31:00
234 756 Olivia UNDERHILL 00:31:01 SL 12 Female 36 Alchester RC 19:32:14 00:31:01
235 871 Claire STRATFORD 00:31:03 VL35 15 Female 37 Cherwell Runners & Joggers 19:32:16 00:31:03
236 160 Arthur McEWAN-JAMES 00:31:16 SM 62 Male 199 Eynsham Roadrunners 19:32:29 00:31:16
237 855 Ila PEARSON 00:31:17 VL35 16 Female 38 Cherwell Runners & Joggers 19:32:30 00:31:17
238 341 Richard HUME 00:31:18 VM40 72 Male 200 Eynsham Roadrunners 19:32:31 00:31:18
239 591 Mike WILSON 00:31:23 VM50 44 Male 201 Abingdon AC 19:32:36 00:31:23
240 533 Alan HINE 00:31:26 VM50 45 Male 202 Alchester RC 19:32:39 00:31:26
241 64 Kate WILLIAMSON 00:31:30 VL65 1 Female 39 Eynsham Roadrunners 19:32:43 00:31:30
242 834 Clare HUMPHREYS 00:31:30 VL35 17 Female 40 Headington Roadrunners 19:32:43 00:31:30
243 928 Jane GARTON 00:31:30 VL45 10 Female 41 Eynsham Roadrunners 19:32:43 00:31:30
244 177 Ashley SMITH 00:31:34 SM 63 Male 203 Headington Roadrunners 19:32:47 00:31:34
245 973 Philippa TERRY 00:31:36 VL45 11 Female 42 Abingdon AC 19:32:49 00:31:36
246 638 David SAWYER 00:31:39 VM60 16 Male 204 Headington Roadrunners 19:32:52 00:31:39
247 709 Rhiannon EVANS 00:31:40 SL 13 Female 43 Headington Roadrunners 19:32:53 00:31:40
248 800 Fiona ABLESON 00:31:44 VL35 18 Female 44 19:32:57 00:31:44
249 318 Mark EDWARDS 00:31:48 VM40 73 Male 205 Abingdon AC 19:33:01 00:31:48
250 552 Steve MEREDITH 00:31:53 VM50 46 Male 206 Oxford City AC 19:33:06 00:31:53
251 618 Neil FORBES 00:31:53 VM60 17 Male 207 Banbury 19:33:06 00:31:53
252 77 Glyn PRITCHARD 00:31:56 VM70 1 Male 208 Banbury 19:33:09 00:31:56
253 949 Caroline KERR 00:31:58 VL45 12 Female 45 Alchester RC 19:33:11 00:31:58
254 808 Melanie CASSIDY 00:32:00 VL35 19 Female 46 Witney Roadrunners 19:33:13 00:32:00
255 711 Lynn FEATHERSTONE 00:32:01 SL 14 Female 47 Headington Roadrunners 19:33:14 00:32:01
256 329 Rich GIBBS 00:32:07 VM40 74 Male 209 Headington Roadrunners 19:33:20 00:32:07
257 946 Rachel JORDAN 00:32:10 VL45 13 Female 48 Bicester Tri 19:33:23 00:32:10
258 360 John NEWTON 00:32:17 VM40 75 Male 210 Abingdon AC 19:33:30 00:32:17
259 640 Andrew SLEIGHT 00:32:23 VM60 18 Male 211 Cherwell Runners & Joggers 19:33:36 00:32:23
260 902 Alison BARRY 00:32:28 VL45 14 Female 49 Headington Roadrunners 19:33:41 00:32:28
261 738 Lee-ann PENALUNA 00:32:32 SL 15 Female 50 Witney Roadrunners 19:33:45 00:32:32
262 47 Kim SHAW 00:32:35 VL55 2 Female 51 Cherwell Runners & Joggers 19:33:48 00:32:35
263 736 Harriet-Rose NOONS 00:32:39 SL 16 Female 52 Witney Roadrunners 19:33:52 00:32:39
264 630 Philip LISTER 00:32:40 VM60 19 Male 212 Headington Roadrunners 19:33:53 00:32:40
265 907 Rebecca BIEGEL 00:32:41 VL45 15 Female 53 Banbury 19:33:54 00:32:41
266 903 Liz BEDFORD 00:32:44 VL45 16 Female 54 Abingdon AC 19:33:57 00:32:44
267 29 Gwyneth HUETER 00:32:45 VL55 3 Female 55 Oxford City AC 19:33:58 00:32:45
268 951 Tara LAWFULL 00:32:48 VL45 17 Female 56 Eynsham Roadrunners 19:34:01 00:32:48
269 40 Wendy MILLATT 00:32:49 VL55 4 Female 57 Abingdon AC 19:34:02 00:32:49
270 606 David BUNNEY 00:32:50 VM60 20 Male 213 Hook Norton Harriers 19:34:03 00:32:50
271 627 Martin JOHNSON 00:32:52 VM60 21 Male 214 Eynsham Roadrunners 19:34:05 00:32:52
272 744 Becky PULL 00:33:00 SL 17 Female 58 Banbury 19:34:13 00:33:00
273 830 Annelies HENSHALL 00:33:01 VL35 20 Female 59 Alchester RC 19:34:14 00:33:01
274 36 Glenys LOGAN 00:33:02 VL55 5 Female 60 Cherwell Runners & Joggers 19:34:15 00:33:02
275 919 Sue COZENS 00:33:04 VL45 18 Female 61 Abingdon AC 19:34:17 00:33:04
276 506 Tony BURKE 00:33:10 VM50 47 Male 215 Alchester RC 19:34:23 00:33:10
277 376 Bryan RODEN 00:33:11 VM40 76 Male 216 19:34:24 00:33:11
278 201 Adam PREWETT 00:33:12 SM 64 Male 217 Headington Roadrunners 19:34:25 00:33:12
279 809 Edwina COLCLOUGH 00:33:13 VL35 21 Female 62 Alchester RC 19:34:26 00:33:13
280 70 David BASHAM 00:33:17 VM70 2 Male 218 Alchester RC 19:34:30 00:33:17
281 922 Eileen DOHERTY 00:33:19 VL45 19 Female 63 WOODSTOCK HARRIERS 19:34:32 00:33:19
282 305 John BISHOP 00:33:23 VM40 77 Male 219 Eynsham Roadrunners 19:34:36 00:33:23
283 617 Steve FABES 00:33:24 VM60 22 Male 220 Abingdon AC 19:34:37 00:33:24
284 639 John SHAW 00:33:28 VM60 23 Male 221 Cherwell Runners & Joggers 19:34:41 00:33:28
285 876 Jessica WRIGHT 00:33:30 VL35 22 Female 64 Witney Roadrunners 19:34:43 00:33:30
286 564 Clifford PENTON 00:33:33 VM50 48 Male 222 Abingdon AC 19:34:46 00:33:33
287 955 Jan MCCABE 00:33:34 VL45 20 Female 65 White Horse Harriers 19:34:47 00:33:34
288 631 John McCORMAC 00:33:35 VM60 24 Male 223 Witney Roadrunners 19:34:48 00:33:35
289 816 Alison CRAGGS 00:33:37 VL35 23 Female 66 Eynsham Roadrunners 19:34:50 00:33:37
290 395 Toby TURTON 00:33:40 VM40 78 Male 224 Headington Roadrunners 19:34:53 00:33:40
291 76 Nigel LAMBERT 00:33:41 VM70 3 Male 225 Alchester RC 19:34:54 00:33:41
292 387 Andrew SULLEY 00:33:45 VM40 79 Male 226 Headington Roadrunners 19:34:58 00:33:45
293 603 Derek BREAKER 00:33:46 VM60 25 Male 227 Eynsham Roadrunners 19:34:59 00:33:46
294 635 Graham NORRIS 00:33:48 VM60 26 Male 228 Headington Roadrunners 19:35:01 00:33:48
295 641 Ged TAYLOR 00:33:51 VM60 27 Male 229 Headington Roadrunners 19:35:04 00:33:51
296 740 Stephanie POULSON 00:33:52 SL 18 Female 67 Kidlington Running Club 19:35:05 00:33:52
297 569 Julian RELTON 00:33:52 VM50 49 Male 230 Hook Norton Harriers 19:35:05 00:33:52
298 572 Paul RUSHBY 00:33:53 VM50 50 Male 231 Witney Roadrunners 19:35:06 00:33:53
299 734 Emma NELSON 00:33:54 SL 19 Female 68 Alchester RC 19:35:07 00:33:54
300 700 Charlotte ALLAN 00:33:55 SL 20 Female 69 Headington Roadrunners 19:35:08 00:33:55
301 26 Sue DOUGLAS 00:33:56 VL55 6 Female 70 Abingdon AC 19:35:09 00:33:56
302 634 Hugh MORRIS 00:33:57 VM60 28 Male 232 Eynsham Roadrunners 19:35:10 00:33:57
303 868 Helen SMYTH 00:34:00 VL35 24 Female 71 White Horse Harriers 19:35:13 00:34:00
304 636 Lawrence PARKES 00:34:07 VM60 29 Male 233 Cherwell Runners & Joggers 19:35:20 00:34:07
305 757 Abigail WALDOCK 00:34:07 SL 21 Female 72 Abingdon AC 19:35:20 00:34:07
306 560 Hanno NICKAU 00:34:07 VM50 51 Male 234 Headington Roadrunners 19:35:20 00:34:07
307 924 Stephanie FISHER 00:34:09 VL45 21 Female 73 Alchester RC 19:35:22 00:34:09
308 557 Colin MORRIS 00:34:14 VM50 52 Male 235 Witney Roadrunners 19:35:27 00:34:14
309 633 Keith MORGAN 00:34:19 VM60 30 Male 236 Witney Roadrunners 19:35:32 00:34:19
310 960 Julia PENNINGTON 00:34:22 VL45 22 Female 74 Abingdon AC 19:35:35 00:34:22
311 831 Natalie HERBERT 00:34:24 VL35 25 Female 75 Cherwell Runners & Joggers 19:35:37 00:34:24
312 854 Kathryn PAYNE 00:34:29 VL35 26 Female 76 Hook Norton Harriers 19:35:42 00:34:29
313 923 Diane EVANS 00:34:31 VL45 23 Female 77 Headington Roadrunners 19:35:44 00:34:31
314 726 Christine MCBRIDE 00:34:32 SL 22 Female 78 Headington Roadrunners 19:35:45 00:34:32
315 400 Stuart WATTON 00:34:36 VM40 80 Male 237 Abingdon AC 19:35:49 00:34:36
316 521 Terry FRANCIS 00:34:40 VM50 53 Male 238 Abingdon AC 19:35:53 00:34:40
317 983 Erica WOOSEY-GRIFFIN 00:34:42 VL45 24 Female 79 Abingdon AC 19:35:55 00:34:42
318 500 Anton ANDERSEN 00:34:42 VM50 54 Male 239 19:35:55 00:34:42
319 966 Anne ROUGET 00:34:47 VL45 25 Female 80 Witney Roadrunners 19:36:00 00:34:47
320 872 Jill THOMAS 00:34:51 VL35 27 Female 81 Headington Roadrunners 19:36:04 00:34:51
321 323 Mike FISHER 00:34:53 VM40 81 Male 240 Alchester RC 19:36:06 00:34:53
322 71 Paul CREASEY 00:34:55 VM70 4 Male 241 Eynsham Roadrunners 19:36:08 00:34:55
323 705 Clare BODSWORTH 00:34:57 SL 23 Female 82 Headington Roadrunners 19:36:10 00:34:57
324 147 Benjamin JONES 00:34:59 SM 65 Male 242 Eynsham Roadrunners 19:36:12 00:34:59
325 601 Keith BAKER 00:34:59 VM60 31 Male 243 Eynsham Roadrunners 19:36:12 00:34:59
326 926 Elizabeth FRENCH 00:35:01 VL45 26 Female 83 Alchester RC 19:36:14 00:35:01
327 758 Hazel WIGGINTON 00:35:02 SL 24 Female 84 Abingdon AC 19:36:15 00:35:02
328 967 Vicky RUSSELL 00:35:02 VL45 27 Female 85 Abingdon AC 19:36:15 00:35:02
329 357 Ulen NEALE 00:35:05 VM40 82 Male 244 Headington Roadrunners 19:36:18 00:35:05
330 626 Trevor JENNINGS 00:35:06 VM60 32 Male 245 Witney Roadrunners 19:36:19 00:35:06
331 38 Imogen MATTHEWS 00:35:07 VL55 7 Female 86 Headington Roadrunners 19:36:20 00:35:07
332 969 Linda SLAY 00:35:07 VL45 28 Female 87 Headington Roadrunners 19:36:20 00:35:07
333 917 Sharon CHRISTIE 00:35:12 VL45 29 Female 88 Witney Roadrunners 19:36:25 00:35:12
334 713 Claire GOODWIN 00:35:13 SL 25 Female 89 Banbury 19:36:26 00:35:13
335 975 Fiona TOPP 00:35:16 VL45 30 Female 90 Abingdon AC 19:36:29 00:35:16
336 912 Clare BURNBY 00:35:20 VL45 31 Female 91 Alchester RC 19:36:33 00:35:20
337 931 Sandra HARDING-BROWN 00:35:21 VL45 32 Female 92 Headington Roadrunners 19:36:34 00:35:21
338 49 Helen WALKER 00:35:28 VL55 8 Female 93 Cherwell Runners & Joggers 19:36:41 00:35:28
339 840 Regina LALLY 00:35:36 VL35 28 Female 94 Witney Roadrunners 19:36:49 00:35:36
340 965 Kate ROSEBLADE 00:35:43 VL45 33 Female 95 Hook Norton Harriers 19:36:56 00:35:43
341 708 Melissa DOWNING 00:35:44 SL 26 Female 96 19:36:57 00:35:44
342 908 Paula BOOTH 00:35:47 VL45 34 Female 97 WOODSTOCK HARRIERS 19:37:00 00:35:47
343 849 Sharon MERRILL 00:35:52 VL35 29 Female 98 Headington Roadrunners 19:37:05 00:35:52
344 51 Jane WHITLOCK 00:36:06 VL55 9 Female 99 Eynsham Roadrunners 19:37:19 00:36:06
345 515 Graham DAY 00:36:09 VM50 55 Male 246 Headington Roadrunners 19:37:22 00:36:09
346 866 Emma SMITH 00:36:13 VL35 30 Female 100 Headington Roadrunners 19:37:26 00:36:13
347 615 David EARLY 00:36:16 VM60 33 Male 247 Eynsham Roadrunners 19:37:29 00:36:16
348 364 Rick OWEN 00:36:17 VM40 83 Male 248 Alchester RC 19:37:30 00:36:17
349 859 Rebecca REID 00:36:17 VL35 31 Female 101 Headington Roadrunners 19:37:30 00:36:17
350 839 Beth KIRK 00:36:20 VL35 32 Female 102 Abingdon AC 19:37:33 00:36:20
351 743 Lisa PRESTON 00:36:28 SL 27 Female 103 Hook Norton Harriers 19:37:41 00:36:28
352 904 Sharon BEDFORD 00:36:35 VL45 35 Female 104 White Horse Harriers 19:37:48 00:36:35
353 954 Charmian MASKELL 00:36:38 VL45 36 Female 105 Eynsham Roadrunners 19:37:51 00:36:38
354 513 Richard CLARKE 00:36:41 VM50 56 Male 249 Headington Roadrunners 19:37:54 00:36:41
355 541 Ian KIRTON 00:36:43 VM50 57 Male 250 Cherwell Runners & Joggers 19:37:56 00:36:43
356 804 Helen BOWER 00:36:45 VL35 33 Female 106 Abingdon AC 19:37:58 00:36:45
357 612 Ken CRAIGIE 00:36:54 VM60 34 Male 251 Cherwell Runners & Joggers 19:38:07 00:36:54
358 52 Patricia WILSON 00:36:57 VL55 10 Female 107 Abingdon AC 19:38:10 00:36:57
359 405 Jonathan WILLIS 00:37:08 VM40 84 Male 252 Kidlington Running Club 19:38:21 00:37:08
360 802 Rachel BANNISTER 00:37:11 VL35 34 Female 108 Hook Norton Harriers 19:38:24 00:37:11
361 957 Helen NASH 00:37:15 VL45 37 Female 109 Abingdon AC 19:38:28 00:37:15
362 646 John WILCOX 00:37:17 VM60 35 Male 253 Eynsham Roadrunners 19:38:30 00:37:17
363 913 Elaine BUTLER 00:37:21 VL45 38 Female 110 Eynsham Roadrunners 19:38:34 00:37:21
364 363 Tayfun OSMAN 00:37:23 VM40 85 Male 254 Headington Roadrunners 19:38:36 00:37:23
365 753 Nadine STEWARD 00:37:30 SL 28 Female 111 Cherwell Runners & Joggers 19:38:43 00:37:30
366 27 Jackie DUVALL 00:37:30 VL55 11 Female 112 Headington Roadrunners 19:38:43 00:37:30
367 760 Emma WILLCOX 00:37:31 SL 29 Female 113 Alchester RC 19:38:44 00:37:31
368 850 Yolande MIRZA 00:37:40 VL35 35 Female 114 Abingdon AC 19:38:53 00:37:40
369 936 Sandra HERYET 00:37:44 VL45 39 Female 115 Hook Norton Harriers 19:38:57 00:37:44
370 628 Ian KEELEY 00:37:46 VM60 36 Male 255 Eynsham Roadrunners 19:38:59 00:37:46
371 823 Michelle DURHAM 00:37:59 VL35 36 Female 116 Abingdon AC 19:39:12 00:37:59
372 41 Jane MILLWARD 00:38:03 VL55 12 Female 117 Hook Norton Harriers 19:39:16 00:38:03
373 32 Marisa KEELEY 00:38:04 VL55 13 Female 118 Eynsham Roadrunners 19:39:17 00:38:04
374 941 Helen HUGGINS 00:38:05 VL45 40 Female 119 Headington Roadrunners 19:39:18 00:38:05
375 727 Rachael MCKELVEY 00:38:19 SL 30 Female 120 Alchester RC 19:39:32 00:38:19
376 806 Nicky BROCK 00:38:22 VL35 37 Female 121 Abingdon AC 19:39:35 00:38:22
377 844 Marcella LUCKETT 00:38:27 VL35 38 Female 122 Headington Roadrunners 19:39:40 00:38:27
378 977 Lisa TYLER 00:38:30 VL45 41 Female 123 Eynsham Roadrunners 19:39:43 00:38:30
379 132 Paul GODDARD 00:38:36 SM 66 Male 256 Abingdon AC 19:39:49 00:38:36
380 579 John STYLES 00:38:53 VM50 58 Male 257 Abingdon AC 19:40:06 00:38:53
381 733 Jacqueline MURPHY 00:38:56 SL 31 Female 124 Headington Roadrunners 19:40:09 00:38:56
382 637 Adrian PINNOCK 00:39:04 VM60 37 Male 258 Eynsham Roadrunners 19:40:17 00:39:04
383 848 Louise MCBURNIE 00:39:23 VL35 39 Female 125 Cherwell Runners & Joggers 19:40:36 00:39:23
384 22 Clare BURGESS 00:39:41 VL55 14 Female 126 Alchester RC 19:40:54 00:39:41
385 920 Geralidine DAY 00:40:01 VL45 42 Female 127 Headington Roadrunners 19:41:14 00:40:01
386 801 Jill BALL 00:40:05 VL35 40 Female 128 Abingdon AC 19:41:18 00:40:05
387 731 Kathryn MUNDAY 00:40:10 SL 32 Female 129 Oxford City AC 19:41:23 00:40:10
388 843 Fran LONG 00:40:12 VL35 41 Female 130 Abingdon AC 19:41:25 00:40:12
389 956 Emma MOORE 00:40:19 VL45 43 Female 131 Abingdon AC 19:41:32 00:40:19
390 30 Susan JAMES 00:40:51 VL55 15 Female 132 Abingdon AC 19:42:04 00:40:51
391 968 Maggy SHEPLEY 00:41:08 VL45 44 Female 133 Abingdon AC 19:42:21 00:41:08
392 939 Lisa HORWOOD 00:41:45 VL45 45 Female 134 Alchester RC 19:42:58 00:41:45
393 703 Victoria BARTHOLEMEW 00:41:47 SL 33 Female 135 Hook Norton Harriers 19:43:00 00:41:47
394 901 Lisa ASTBURY 00:41:51 VL45 46 Female 136 Abingdon AC 19:43:04 00:41:51
395 45 Sally ORMISTON 00:41:54 VL55 16 Female 137 19:43:07 00:41:54
396 974 Karen THOMAS 00:42:00 VL45 47 Female 138 Cherwell Runners & Joggers 19:43:13 00:42:00
397 911 Joanne BURKE 00:42:06 VL45 48 Female 139 Alchester RC 19:43:19 00:42:06
398 962 Cynthia READER 00:42:06 VL45 49 Female 140 Bicester Tri 19:43:19 00:42:06
399 43 Gail MORRIS 00:42:06 VL55 17 Female 141 Eynsham Roadrunners 19:43:19 00:42:06
400 721 Jen HORSMAN 00:42:24 SL 34 Female 142 19:43:37 00:42:24
401 72 Brian EVANS 00:42:26 VM70 5 Male 259 Abingdon AC 19:43:39 00:42:26
402 60 Noel BLATCHFORD 00:42:44 VL65 2 Female 143 Abingdon AC 19:43:57 00:42:44
403 730 Lisa MOULDER 00:43:00 SL 35 Female 144 Hook Norton Harriers 19:44:13 00:43:00
404 63 Sandra-Lea SMITH 00:43:26 VL65 3 Female 145 Banbury 19:44:39 00:43:26
405 862 Julie SAHONTA 00:43:51 VL35 42 Female 146 Cherwell Runners & Joggers 19:45:04 00:43:51
406 811 Jennifer COOKE 00:45:53 VL35 43 Female 147 Abingdon AC 19:47:06 00:45:53
407 861 Danie REVILL 00:46:13 VL35 44 Female 148 Alchester RC 19:47:26 00:46:13
408 875 Emma WHITESIDE 00:46:15 VL35 45 Female 149 Alchester RC 19:47:28 00:46:15
409 748 Victoria ROSE 00:46:18 SL 36 Female 150 Eynsham Roadrunners 19:47:31 00:46:18
410 624 Paul GRIMSDALE 00:46:42 VM60 38 Male 260 Oxford City AC 19:47:55 00:46:42
411 78 Kit VILLIERS 00:47:02 VM70 6 Male 261 Headington Roadrunners 19:48:15 00:47:02
412 970 Patsy SMILES 00:47:20 VL45 50 Female 151 Abingdon AC 19:48:33 00:47:20
413 162 Steven McKERNAN 00:48:37 SM 67 Male 262 Eynsham Roadrunners 19:49:50 00:48:37
414 930 Maria HAMILTON 00:50:32 VL45 51 Female 152 Abingdon AC 19:51:45 00:50:32
415 48 Rachel SHEARER 00:50:32 VL55 18 Female 153 Abingdon AC 19:51:45 00:50:32